Time;durP1;ratioP1;P1;durP2;ratioP2;P2;SDS_P1;SDS_P2;PMS_P1;PMS_P2;Temp;Humidity;BMP_temperature;BMP_pressure;BME280_temperature;BME280_humidity;BME280_pressure;Samples;Min_cycle;Max_cycle;Signal;HPM_P1;HPM_P2
2023/03/09 00:02:36;;;;;;;40.30;16.20;;;;;;;-0.82;100.00;98936.81;5103348;22;20121;-96
2023/03/09 00:05:20;;;;;;;41.55;17.52;;;;;;;-0.78;100.00;98942.41;5088302;28;20028;-95
2023/03/09 00:07:54;;;;;;;39.85;15.65;;;;;;;-0.94;100.00;98902.63;5086752;28;20036;-95
2023/03/09 00:10:56;;;;;;;38.50;15.68;;;;;;;-0.69;100.00;98929.72;5088358;28;20047;-94
2023/03/09 00:13:22;;;;;;;30.42;12.80;;;;;;;-0.76;100.00;98919.31;5108549;28;20083;-95
2023/03/09 00:15:51;;;;;;;43.33;16.03;;;;;;;-0.75;100.00;98912.25;5108431;28;20024;-95
2023/03/09 00:18:29;;;;;;;38.92;15.93;;;;;;;-0.77;100.00;98922.97;5107503;28;20028;-95
2023/03/09 00:20:56;;;;;;;37.75;15.50;;;;;;;-0.68;100.00;98926.06;5110119;28;20012;-96
2023/03/09 00:23:21;;;;;;;41.53;15.93;;;;;;;-0.77;100.00;98896.69;5105787;28;20052;-95
2023/03/09 00:25:54;;;;;;;46.27;17.70;;;;;;;-0.77;100.00;98929.06;5103463;28;20032;-94
2023/03/09 00:28:19;;;;;;;30.33;12.25;;;;;;;-0.78;100.00;98942.41;5111017;28;20015;-95
2023/03/09 00:31:12;;;;;;;45.40;18.10;;;;;;;-0.84;100.00;98941.50;5102136;28;20016;-95
2023/03/09 00:33:37;;;;;;;42.53;16.35;;;;;;;-0.75;100.00;98954.34;5096011;28;20028;-95
2023/03/09 00:36:13;;;;;;;44.40;17.17;;;;;;;-0.80;100.00;98960.25;5094384;28;20032;-96
2023/03/09 00:38:48;;;;;;;41.65;16.90;;;;;;;-0.75;100.00;98970.13;5094242;28;20028;-95
2023/03/09 00:41:18;;;;;;;40.38;17.05;;;;;;;-0.73;100.00;98973.31;5094247;28;20124;-95
2023/03/09 00:44:07;;;;;;;;;;;;;;;;;;;;;
2023/03/09 00:46:34;;;;;;;45.93;17.83;;;;;;;-0.87;100.00;98954.31;5095478;28;20039;-95
2023/03/09 00:49:03;;;;;;;43.88;16.38;;;;;;;-0.70;100.00;98986.81;5093533;28;20470;-94
2023/03/09 00:51:28;;;;;;;46.90;17.45;;;;;;;-0.85;100.00;98966.22;5092841;28;20111;-95
2023/03/09 00:53:56;;;;;;;36.03;15.07;;;;;;;-0.67;100.00;98994.25;5093331;28;20067;-94
2023/03/09 00:56:37;;;;;;;43.27;16.80;;;;;;;-0.74;100.00;98987.50;5094226;28;20039;-95
2023/03/09 00:59:15;;;;;;;;;;;;;;;;;;;;;
2023/03/09 01:01:43;;;;;;;40.75;16.10;;;;;;;-0.74;100.00;98990.13;5087380;28;20044;-95
2023/03/09 01:04:09;;;;;;;49.47;18.10;;;;;;;-0.80;100.00;98992.63;5093316;28;20016;-95
2023/03/09 01:06:34;;;;;;;44.60;16.33;;;;;;;-0.82;100.00;98994.69;5092323;28;20128;-95
2023/03/09 01:08:59;;;;;;;41.77;15.53;;;;;;;-0.81;100.00;99000.72;5091565;28;20060;-96
2023/03/09 01:11:25;;;;;;;51.58;17.70;;;;;;;-0.70;100.00;99028.09;5092244;28;20123;-96
2023/03/09 01:13:52;;;;;;;43.00;17.10;;;;;;;-0.67;100.00;99043.41;5091811;28;20479;-94
2023/03/09 01:16:18;;;;;;;40.15;14.88;;;;;;;-0.78;100.00;99048.44;5093864;28;20024;-94
2023/03/09 01:18:46;;;;;;;41.03;16.40;;;;;;;-0.67;100.00;99077.63;5092465;28;20528;-95
2023/03/09 01:21:12;;;;;;;43.88;17.25;;;;;;;-0.84;100.00;99038.03;5093589;28;20020;-94
2023/03/09 01:23:39;;;;;;;43.60;15.60;;;;;;;-0.68;100.00;99058.41;5092090;28;20065;-95
2023/03/09 01:26:07;;;;;;;42.38;16.58;;;;;;;-0.74;100.00;99050.63;5092951;28;20462;-95
2023/03/09 01:28:34;;;;;;;40.35;16.95;;;;;;;-0.73;100.00;99049.59;5092693;28;20031;-95
2023/03/09 01:31:00;;;;;;;42.58;15.38;;;;;;;-0.75;100.00;99052.44;5090278;28;20020;-95
2023/03/09 01:33:25;;;;;;;42.83;15.40;;;;;;;-0.77;100.00;99050.06;5092540;28;20371;-93
2023/03/09 01:35:51;;;;;;;40.17;15.53;;;;;;;-0.84;100.00;99051.97;5091682;28;20274;-94
2023/03/09 01:38:26;;;;;;;;;;;;;;;;;;;;;
2023/03/09 01:40:55;;;;;;;40.58;15.63;;;;;;;-0.81;100.00;99054.16;5089739;28;20058;-95
2023/03/09 01:44:21;;;;;;;44.42;16.08;;;;;;;-0.62;100.00;99086.44;5092836;28;20073;-96
2023/03/09 01:47:36;;;;;;;44.20;16.10;;;;;;;-0.60;100.00;99091.47;5081066;28;20131;-95
2023/03/09 01:53:57;;;;;;;44.78;15.73;;;;;;;-0.60;100.00;99086.22;5030924;28;20072;-95
2023/03/09 02:10:03;;;;;;;;;;;;;;;;;;;;;
2023/03/09 04:02:44;;;;;;;;;;;;;;;;;;;;;
2023/03/09 04:06:09;;;;;;;66.35;21.52;;;;;;;-0.48;100.00;99244.94;4997273;28;20075;-96
2023/03/09 05:56:10;;;;;;;82.47;25.45;;;;;;;-0.40;100.00;99348.31;5028506;28;20048;-96
2023/03/09 06:01:31;;;;;;;102.30;30.50;;;;;;;-0.51;100.00;99348.00;5119345;22;20037;-96
2023/03/09 06:04:25;;;;;;;106.63;30.67;;;;;;;-0.52;100.00;99362.19;5038175;28;20053;-95
2023/03/09 06:06:56;;;;;;;98.53;27.67;;;;;;;-0.52;100.00;99371.91;5018974;28;20297;-96
2023/03/09 06:12:50;;;;;;;99.53;27.95;;;;;;;-0.51;100.00;99374.31;5022556;28;20084;-93
2023/03/09 06:15:58;;;;;;;100.00;27.55;;;;;;;-0.43;100.00;99383.75;5033426;28;20052;-94
2023/03/09 06:18:24;;;;;;;99.55;27.90;;;;;;;-0.52;100.00;99362.19;5015179;28;20043;-94
2023/03/09 06:21:00;;;;;;;104.03;28.00;;;;;;;-0.51;100.00;99363.00;5033465;28;20116;-95
2023/03/09 06:26:02;;;;;;;114.82;28.80;;;;;;;-0.32;100.00;99411.16;5238000;23;20094;-91
2023/03/09 06:28:27;;;;;;;107.22;30.25;;;;;;;-0.34;100.00;99400.84;5072157;28;20040;-90
2023/03/09 06:30:53;;;;;;;103.57;28.17;;;;;;;-0.31;100.00;99410.13;5070887;28;20115;-88
2023/03/09 06:33:18;;;;;;;107.50;28.87;;;;;;;-0.25;100.00;99414.53;5069508;28;20028;-88
2023/03/09 06:35:44;;;;;;;111.32;28.70;;;;;;;-0.23;100.00;99415.13;5070733;28;20020;-90
2023/03/09 06:38:09;;;;;;;108.37;29.10;;;;;;;-0.16;100.00;99418.44;5068224;28;20043;-89
2023/03/09 06:40:50;;;;;;;;;;;;;;;;;;;;;
2023/03/09 06:45:45;;;;;;;101.57;29.77;;;;;;;-0.19;100.00;99429.44;5044489;28;20045;-88
2023/03/09 06:48:11;;;;;;;103.20;29.43;;;;;;;-0.22;100.00;99435.16;5051235;28;20021;-90
2023/03/09 06:50:36;;;;;;;109.03;29.63;;;;;;;-0.40;100.00;99412.25;5083828;22;20041;-93
2023/03/09 06:53:12;;;;;;;114.50;30.70;;;;;;;-0.27;100.00;99439.47;5066775;28;20025;-96
2023/03/09 06:55:40;;;;;;;104.18;27.75;;;;;;;-0.35;100.00;99419.50;5104981;22;20094;-95
2023/03/09 07:11:30;;;;;;;110.38;29.70;;;;;;;-0.01;100.00;99499.72;5266732;22;20049;-89
2023/03/09 07:14:01;;;;;;;97.93;28.05;;;;;;;-0.06;100.00;99496.16;5050397;28;20031;-90
2023/03/09 07:16:27;;;;;;;90.57;25.50;;;;;;;-0.20;100.00;99472.59;5051530;28;20106;-90
2023/03/09 07:26:30;;;;;;;98.78;27.73;;;;;;;-0.07;100.00;99540.09;5067953;28;20071;-89
2023/03/09 07:28:55;;;;;;;103.73;27.87;;;;;;;-0.24;100.00;99500.38;5112178;22;20360;-89
2023/03/09 07:36:39;;;;;;;104.90;27.02;;;;;;;-0.04;100.00;99528.34;5943491;22;20401;-88
2023/03/09 07:39:11;;;;;;;98.85;25.85;;;;;;;0.16;100.00;99551.81;5116620;22;20759;-89
2023/03/09 07:41:52;;;;;;;106.40;26.80;;;;;;;0.14;100.00;99540.69;5052836;28;20454;-89
2023/03/09 07:44:51;;;;;;;111.27;27.73;;;;;;;0.26;100.00;99556.56;5056002;28;20283;-89
2023/03/09 07:48:00;;;;;;;111.15;28.20;;;;;;;0.30;100.00;99565.66;5035562;28;20106;-89
2023/03/09 07:50:58;;;;;;;102.68;27.10;;;;;;;0.17;100.00;99544.72;5033494;28;20068;-89
2023/03/09 07:53:29;;;;;;;100.55;25.45;;;;;;;0.26;100.00;99556.56;5053032;28;20045;-90
2023/03/09 07:56:03;;;;;;;101.35;26.30;;;;;;;0.38;100.00;99575.09;5055118;28;20021;-90
2023/03/09 07:59:15;;;;;;;108.88;28.38;;;;;;;0.21;100.00;99538.78;5036942;28;20434;-88
2023/03/09 08:02:01;;;;;;;96.50;26.07;;;;;;;0.24;100.00;99535.72;5054447;28;20029;-88
2023/03/09 08:04:31;;;;;;;98.80;26.50;;;;;;;0.29;100.00;99543.75;5051777;28;20302;-87
2023/03/09 08:07:05;;;;;;;114.25;28.35;;;;;;;0.41;100.00;99551.72;5054192;28;20037;-88
2023/03/09 08:10:16;;;;;;;105.80;27.38;;;;;;;0.50;100.00;99568.03;5054675;28;20033;-89
2023/03/09 08:12:54;;;;;;;99.13;25.90;;;;;;;0.63;100.00;99587.38;5054999;28;20032;-88
2023/03/09 08:15:20;;;;;;;98.82;26.23;;;;;;;0.66;100.00;99586.91;5053720;28;20025;-88
2023/03/09 08:17:51;;;;;;;108.37;27.23;;;;;;;0.64;100.00;99570.53;5034331;28;20030;-88
2023/03/09 08:20:17;;;;;;;110.90;26.95;;;;;;;0.73;100.00;99596.34;5052032;28;20044;-88
2023/03/09 08:22:52;;;;;;;101.03;26.90;;;;;;;0.68;100.00;99584.84;5036593;28;20071;-88
2023/03/09 08:25:33;;;;;;;108.43;27.83;;;;;;;0.71;100.00;99598.41;5053944;28;20762;-89
2023/03/09 08:28:27;;;;;;;101.75;26.55;;;;;;;0.82;100.00;99612.66;5054274;28;20549;-90
2023/03/09 08:31:34;;;;;;;99.05;26.20;;;;;;;0.82;100.00;99615.28;5054974;28;20083;-89
2023/03/09 08:41:21;;;;;;;96.40;25.98;;;;;;;0.88;100.00;99632.88;5583003;22;20554;-89
2023/03/09 08:50:56;;;;;;;93.32;24.20;;;;;;;0.96;100.00;99641.53;4950047;28;20107;-89
2023/03/09 09:00:19;;;;;;;99.55;25.15;;;;;;;1.44;100.00;99631.91;5032239;28;20068;-89
2023/03/09 09:02:57;;;;;;;108.75;26.73;;;;;;;1.45;100.00;99633.53;5033175;28;20116;-90
2023/03/09 09:05:22;;;;;;;105.53;25.93;;;;;;;1.49;100.00;99643.41;5035361;28;20104;-90
2023/03/09 09:07:48;;;;;;;97.63;25.90;;;;;;;1.41;100.00;99650.84;5032988;28;20033;-87
2023/03/09 09:10:14;;;;;;;103.03;26.90;;;;;;;1.55;100.00;99681.28;5032300;28;20477;-87
2023/03/09 09:12:39;;;;;;;94.45;24.77;;;;;;;1.53;100.00;99683.34;5033098;28;20072;-88
2023/03/09 09:15:09;;;;;;;94.00;25.47;;;;;;;1.50;100.00;99683.81;5033255;28;20032;-88
2023/03/09 09:17:35;;;;;;;97.43;25.85;;;;;;;1.46;100.00;99690.59;5031531;28;20408;-88
2023/03/09 09:20:01;;;;;;;92.57;24.67;;;;;;;1.40;100.00;99689.63;5032673;28;20021;-88
2023/03/09 09:22:26;;;;;;;92.23;26.57;;;;;;;1.39;100.00;99687.22;5033253;28;20750;-87
2023/03/09 09:24:59;;;;;;;87.73;24.80;;;;;;;1.32;100.00;99682.03;5030792;28;20045;-87
2023/03/09 09:27:28;;;;;;;92.82;25.40;;;;;;;1.46;100.00;99682.66;5033773;28;20032;-88
2023/03/09 09:30:14;;;;;;;97.68;26.02;;;;;;;1.44;100.00;99660.97;5032831;28;20036;-88
2023/03/09 09:32:40;;;;;;;80.00;22.98;;;;;;;1.51;100.00;99678.31;5031177;28;20480;-88
2023/03/09 09:35:17;;;;;;;99.47;26.97;;;;;;;1.52;100.00;99665.91;5031298;28;20021;-88
2023/03/09 09:37:58;;;;;;;;;;;;;;;;;;;;;
2023/03/09 09:40:39;;;;;;;95.18;27.25;;;;;;;1.99;100.00;99662.53;5031049;28;20036;-88
2023/03/09 09:43:10;;;;;;;109.70;29.10;;;;;;;2.32;100.00;99695.50;5032977;28;20060;-88
2023/03/09 09:46:11;;;;;;;129.20;37.17;;;;;;;2.34;100.00;99703.22;5032804;28;20288;-89
2023/03/09 09:48:40;;;;;;;113.95;29.13;;;;;;;2.35;100.00;99707.47;5014811;28;20073;-86
2023/03/09 09:51:23;;;;;;;86.25;26.25;;;;;;;2.21;100.00;99705.03;5031221;28;20140;-86
2023/03/09 09:54:22;;;;;;;95.72;30.60;;;;;;;2.20;100.00;99716.63;5031270;28;20033;-86
2023/03/09 09:56:52;;;;;;;85.07;25.80;;;;;;;2.22;100.00;99713.78;5031745;28;20484;-88
2023/03/09 09:59:46;;;;;;;85.15;25.73;;;;;;;2.32;100.00;99707.94;5031971;28;20025;-89
2023/03/09 10:02:33;;;;;;;88.17;26.33;;;;;;;2.26;100.00;99705.16;5026501;28;20042;-88
2023/03/09 10:05:08;;;;;;;82.45;25.98;;;;;;;2.22;100.00;99705.84;5013381;28;20080;-87
2023/03/09 10:07:36;;;;;;;82.85;24.23;;;;;;;2.38;100.00;99715.75;5020626;28;20042;-86
2023/03/09 10:10:05;;;;;;;86.25;25.63;;;;;;;2.51;100.00;99712.06;5029598;28;20025;-86
2023/03/09 10:12:31;;;;;;;86.68;26.70;;;;;;;2.56;100.00;99714.00;5023223;28;20427;-86
2023/03/09 10:15:25;;;;;;;85.83;26.63;;;;;;;2.61;100.00;99710.66;5031045;28;20037;-87
2023/03/09 10:18:10;;;;;;;87.50;25.30;;;;;;;2.67;100.00;99707.09;5029047;28;20037;-86
2023/03/09 10:20:35;;;;;;;93.97;26.30;;;;;;;2.90;100.00;99723.97;5031245;28;20033;-87
2023/03/09 10:23:14;;;;;;;88.20;25.50;;;;;;;2.93;100.00;99712.88;5031390;28;20029;-87
2023/03/09 10:25:42;;;;;;;87.50;27.52;;;;;;;2.99;100.00;99712.78;5022078;28;20029;-88
2023/03/09 10:28:22;;;;;;;88.20;27.20;;;;;;;3.08;100.00;99713.22;5013305;28;20021;-88
2023/03/09 10:31:01;;;;;;;94.05;28.67;;;;;;;3.24;100.00;99714.28;5017305;28;20029;-88
2023/03/09 10:33:48;;;;;;;96.00;29.35;;;;;;;3.52;100.00;99702.09;5031199;28;20044;-88
2023/03/09 10:36:39;;;;;;;80.43;25.52;;;;;;;3.65;100.00;99708.94;5031720;28;20032;-87
2023/03/09 10:39:14;;;;;;;72.70;24.15;;;;;;;3.72;100.00;99704.28;5055601;22;20209;-87
2023/03/09 10:41:40;;;;;;;87.38;27.50;;;;;;;3.94;100.00;99707.00;5050870;28;20504;-89
2023/03/09 10:44:06;;;;;;;79.05;25.13;;;;;;;4.07;100.00;99705.88;5046769;28;20388;-89
2023/03/09 10:47:01;;;;;;;80.57;26.40;;;;;;;4.14;100.00;99724.28;5051104;28;20095;-88
2023/03/09 10:49:28;;;;;;;70.82;24.67;;;;;;;4.13;100.00;99727.19;5051323;28;20527;-89
2023/03/09 10:52:00;;;;;;;74.33;26.77;;;;;;;4.20;100.00;99715.38;5051598;28;20060;-89
2023/03/09 10:54:36;;;;;;;70.93;24.03;;;;;;;4.32;100.00;99727.72;5052814;28;20301;-86
2023/03/09 10:57:19;;;;;;;69.82;24.42;;;;;;;4.22;100.00;99725.72;5058583;28;20550;-88
2023/03/09 10:59:54;;;;;;;67.03;24.30;;;;;;;4.24;100.00;99718.31;5058010;28;20032;-89
2023/03/09 11:02:29;;;;;;;70.45;24.60;;;;;;;4.25;100.00;99714.63;5065190;28;20075;-87
2023/03/09 11:04:54;;;;;;;65.55;24.30;;;;;;;4.31;100.00;99711.03;5052081;28;20059;-88
2023/03/09 11:07:26;;;;;;;65.30;24.77;;;;;;;4.27;100.00;99717.84;5071383;28;20032;-88
2023/03/09 11:09:52;;;;;;;68.65;25.05;;;;;;;4.19;100.00;99720.94;5063073;28;20096;-89
2023/03/09 11:12:33;;;;;;;62.80;21.43;;;;;;;4.18;100.00;99717.47;5062651;28;20028;-88
2023/03/09 11:15:01;;;;;;;61.70;22.57;;;;;;;4.18;100.00;99720.09;5050998;28;20285;-88
2023/03/09 11:17:37;;;;;;;62.67;23.30;;;;;;;4.35;100.00;99720.09;5051684;28;20043;-88
2023/03/09 11:20:12;;;;;;;56.38;22.55;;;;;;;4.29;100.00;99722.94;5051841;28;20064;-88
2023/03/09 11:22:42;;;;;;;59.85;22.45;;;;;;;4.32;100.00;99717.13;5047760;28;20038;-88
2023/03/09 11:25:38;;;;;;;62.28;23.08;;;;;;;4.38;100.00;99721.47;5039903;28;20499;-88
2023/03/09 11:28:28;;;;;;;63.63;24.67;;;;;;;4.42;100.00;99716.47;5051725;28;20278;-88
2023/03/09 11:30:56;;;;;;;62.13;24.63;;;;;;;4.37;100.00;99710.06;5053254;28;20057;-89
2023/03/09 11:33:24;;;;;;;58.17;23.57;;;;;;;4.37;100.00;99711.88;5050820;28;20300;-89
2023/03/09 11:36:00;;;;;;;59.80;23.88;;;;;;;4.11;100.00;99716.00;5052678;28;20028;-89
2023/03/09 11:41:11;;;;;;;58.50;23.27;;;;;;;3.77;100.00;99707.03;5557857;22;20053;-88
2023/03/09 11:43:41;;;;;;;63.60;23.30;;;;;;;3.83;100.00;99710.56;5013358;28;20112;-89
2023/03/09 11:46:12;;;;;;;62.78;24.13;;;;;;;3.69;100.00;99696.00;5031574;28;20378;-89
2023/03/09 11:48:43;;;;;;;61.10;22.60;;;;;;;3.63;100.00;99706.50;5030557;28;20112;-90
2023/03/09 11:51:14;;;;;;;60.38;23.40;;;;;;;3.58;100.00;99708.28;5013645;28;20495;-90
2023/03/09 11:54:09;;;;;;;60.58;24.92;;;;;;;3.47;100.00;99702.00;5030328;28;20112;-90
2023/03/09 11:56:38;;;;;;;66.25;23.38;;;;;;;3.45;100.00;99712.84;5017628;28;20033;-89
2023/03/09 11:59:32;;;;;;;61.90;23.35;;;;;;;3.41;100.00;99713.53;5028591;28;20033;-89
2023/03/09 12:02:00;;;;;;;62.30;23.15;;;;;;;3.34;100.00;99718.97;5022618;28;20018;-89
2023/03/09 12:04:25;;;;;;;59.90;22.80;;;;;;;3.32;100.00;99716.56;5052535;28;20047;-88
2023/03/09 12:07:03;;;;;;;60.97;22.17;;;;;;;3.38;100.00;99708.72;5052792;28;20299;-88
2023/03/09 12:09:41;;;;;;;66.55;23.88;;;;;;;3.34;100.00;99697.78;5031633;28;20021;-87
2023/03/09 12:12:30;;;;;;;70.47;24.40;;;;;;;3.41;100.00;99703.75;5043783;28;20030;-88
2023/03/09 12:15:20;;;;;;;63.20;22.83;;;;;;;3.36;100.00;99693.06;5036822;28;20022;-88
2023/03/09 12:17:53;;;;;;;59.55;22.08;;;;;;;3.38;100.00;99703.44;5032630;28;20037;-88
2023/03/09 12:20:39;;;;;;;66.30;25.48;;;;;;;3.39;100.00;99705.84;5031931;28;20431;-88
2023/03/09 12:23:25;;;;;;;63.08;22.80;;;;;;;3.46;100.00;99701.22;5011990;28;20774;-88
2023/03/09 12:25:57;;;;;;;58.90;22.38;;;;;;;3.54;100.00;99697.38;5017798;28;20418;-88
2023/03/09 12:28:23;;;;;;;62.53;22.03;;;;;;;3.54;100.00;99681.47;5038448;28;20124;-89
2023/03/09 12:30:54;;;;;;;62.08;22.55;;;;;;;3.64;100.00;99686.13;5018903;28;20049;-89
2023/03/09 12:33:41;;;;;;;65.43;23.63;;;;;;;3.69;100.00;99682.75;5035690;28;20030;-88
2023/03/09 12:36:24;;;;;;;62.95;22.77;;;;;;;3.64;100.00;99676.31;5039718;28;20113;-89
2023/03/09 12:41:26;;;;;;;62.10;21.63;;;;;;;3.35;100.00;99664.97;6080843;22;21426;-88
2023/03/09 12:43:51;;;;;;;60.95;23.10;;;;;;;3.33;100.00;99653.81;5023294;28;20049;-88
2023/03/09 12:46:48;;;;;;;70.90;24.02;;;;;;;3.43;100.00;99656.66;5020668;28;20022;-88
2023/03/09 12:49:17;;;;;;;64.13;21.37;;;;;;;3.67;100.00;99658.34;5012242;28;20030;-88
2023/03/09 12:51:46;;;;;;;72.13;25.63;;;;;;;3.66;100.00;99640.84;5015623;28;20645;-89
2023/03/09 12:54:22;;;;;;;64.57;21.95;;;;;;;3.68;100.00;99626.31;5015100;28;20026;-89
2023/03/09 12:56:51;;;;;;;61.72;21.75;;;;;;;3.79;100.00;99625.44;5014097;28;20030;-89
2023/03/09 12:59:25;;;;;;;70.53;23.67;;;;;;;3.85;100.00;99623.66;5014060;28;20018;-88
2023/03/09 13:01:51;;;;;;;66.22;23.42;;;;;;;3.79;100.00;99614.03;5014311;28;20041;-88
2023/03/09 13:04:22;;;;;;;60.30;22.93;;;;;;;3.74;100.00;99622.69;5014740;28;20022;-88
2023/03/09 13:06:55;;;;;;;61.72;21.45;;;;;;;3.66;100.00;99623.09;5016176;28;20038;-88
2023/03/09 13:09:30;;;;;;;62.35;19.85;;;;;;;3.59;100.00;99614.53;5018871;28;20037;-88
2023/03/09 13:11:56;;;;;;;59.15;21.30;;;;;;;3.59;100.00;99614.53;5015067;28;20029;-89
2023/03/09 13:14:24;;;;;;;63.27;21.10;;;;;;;3.64;100.00;99604.00;5015181;28;20034;-89
2023/03/09 13:17:19;;;;;;;69.70;22.90;;;;;;;3.71;100.00;99595.88;5013385;28;20481;-88
2023/03/09 13:19:50;;;;;;;62.53;21.67;;;;;;;3.58;100.00;99591.72;5007270;28;20041;-88
2023/03/09 13:22:37;;;;;;;59.27;21.07;;;;;;;3.52;100.00;99603.28;5012626;28;20113;-87
2023/03/09 13:25:30;;;;;;;60.92;20.85;;;;;;;3.42;100.00;99609.19;5013495;28;20022;-89
2023/03/09 13:28:10;;;;;;;59.38;20.20;;;;;;;3.39;100.00;99613.16;5014066;28;20040;-89
2023/03/09 13:30:37;;;;;;;60.97;20.33;;;;;;;3.40;100.00;99611.28;5013196;28;20034;-88
2023/03/09 13:33:14;;;;;;;59.90;21.55;;;;;;;3.29;100.00;99613.78;5012516;28;20022;-88
2023/03/09 13:35:47;;;;;;;59.17;20.00;;;;;;;3.21;100.00;99608.84;5013401;28;20033;-89
2023/03/09 13:38:26;;;;;;;56.67;19.93;;;;;;;3.11;100.00;99614.78;5013201;28;20646;-91
2023/03/09 13:46:14;;;;;;;59.58;19.98;;;;;;;3.04;100.00;99614.13;5044136;28;20047;-87
2023/03/09 13:48:46;;;;;;;59.03;19.35;;;;;;;3.04;100.00;99603.53;5046545;28;20033;-87
2023/03/09 13:51:27;;;;;;;57.60;20.08;;;;;;;3.06;100.00;99605.94;5048964;28;20112;-87
2023/03/09 13:53:53;;;;;;;55.53;18.20;;;;;;;3.06;100.00;99593.53;5049044;28;20033;-86
2023/03/09 13:56:19;;;;;;;64.67;18.90;;;;;;;3.07;100.00;99589.84;5034035;28;20075;-86
2023/03/09 13:58:45;;;;;;;59.95;18.98;;;;;;;3.16;100.00;99577.03;5052874;28;20035;-87
2023/03/09 14:01:25;;;;;;;56.83;18.77;;;;;;;3.21;100.00;99578.94;5033324;28;20028;-86
2023/03/09 14:03:53;;;;;;;62.13;19.33;;;;;;;3.16;100.00;99575.16;5051973;28;20052;-86
2023/03/09 14:06:29;;;;;;;50.27;17.37;;;;;;;3.20;100.00;99558.81;5052098;28;20294;-86
2023/03/09 14:08:59;;;;;;;50.92;16.38;;;;;;;3.23;100.00;99560.97;5050738;28;20025;-87
2023/03/09 14:11:28;;;;;;;45.33;14.55;;;;;;;3.25;100.00;99558.91;5049797;28;20028;-86
2023/03/09 14:14:04;;;;;;;52.35;15.68;;;;;;;3.35;100.00;99559.03;5037008;28;20029;-86
2023/03/09 14:16:30;;;;;;;54.13;18.13;;;;;;;3.35;100.00;99553.75;5031070;28;20025;-86
2023/03/09 14:18:57;;;;;;;42.70;14.65;;;;;;;3.27;100.00;99543.56;5041961;28;20029;-86
2023/03/09 14:21:22;;;;;;;34.73;12.47;;;;;;;3.23;100.00;99547.75;5027514;28;20044;-87
2023/03/09 14:23:48;;;;;;;40.28;14.05;;;;;;;3.16;100.00;99561.94;5047338;28;20033;-87
2023/03/09 14:26:23;;;;;;;39.00;13.63;;;;;;;3.18;100.00;99522.78;5058457;28;20047;-87
2023/03/09 14:29:41;;;;;;;45.33;15.35;;;;;;;3.28;100.00;99527.44;5061718;28;20459;-86
2023/03/09 14:32:23;;;;;;;37.50;12.90;;;;;;;3.32;100.00;99536.50;4989539;28;20092;-87
2023/03/09 14:34:52;;;;;;;43.50;12.57;;;;;;;3.36;100.00;99528.09;4989573;28;20064;-86
2023/03/09 14:37:24;;;;;;;36.88;13.07;;;;;;;3.37;100.00;99519.91;5026299;28;20401;-87
2023/03/09 14:39:49;;;;;;;35.03;11.82;;;;;;;3.40;100.00;99526.53;5025853;28;20053;-86
2023/03/09 14:45:15;;;;;;;32.83;12.18;;;;;;;3.34;100.00;99541.56;5162948;22;20045;-86
2023/03/09 14:47:41;;;;;;;34.50;12.30;;;;;;;3.36;100.00;99552.72;5050034;28;20044;-87
2023/03/09 14:50:13;;;;;;;35.17;13.10;;;;;;;3.33;100.00;99534.66;5059181;28;20036;-87
2023/03/09 14:52:39;;;;;;;36.38;13.93;;;;;;;3.20;100.00;99524.38;5040280;28;20108;-86
2023/03/09 14:55:11;;;;;;;45.60;15.37;;;;;;;3.13;100.00;99546.50;5055466;28;20108;-87
2023/03/09 14:57:37;;;;;;;44.17;17.27;;;;;;;3.05;100.00;99520.47;5051385;28;20115;-88
2023/03/09 15:00:03;;;;;;;42.00;14.00;;;;;;;3.09;100.00;99526.06;5058101;28;20104;-87
2023/03/09 15:02:28;;;;;;;38.25;14.52;;;;;;;3.04;100.00;99547.97;5058433;28;20025;-87
2023/03/09 15:04:54;;;;;;;41.33;13.53;;;;;;;3.03;100.00;99525.19;5051829;28;20025;-87
2023/03/09 15:07:19;;;;;;;44.13;13.80;;;;;;;3.05;100.00;99517.81;5052058;28;20021;-87
2023/03/09 15:09:45;;;;;;;43.07;13.00;;;;;;;3.04;100.00;99529.44;5068841;28;20029;-86
2023/03/09 15:12:13;;;;;;;42.00;13.60;;;;;;;3.10;100.00;99533.78;5058790;28;20019;-86
2023/03/09 15:14:42;;;;;;;35.83;12.63;;;;;;;3.19;100.00;99510.38;5070442;28;20108;-86
2023/03/09 15:17:13;;;;;;;38.45;12.27;;;;;;;3.24;100.00;99504.34;5066135;28;20025;-86
2023/03/09 15:19:38;;;;;;;40.55;12.90;;;;;;;3.24;100.00;99501.69;5050630;28;20108;-86
2023/03/09 15:22:04;;;;;;;40.67;12.43;;;;;;;3.26;100.00;99502.25;5065436;28;20032;-86
2023/03/09 15:24:30;;;;;;;37.53;13.23;;;;;;;3.25;100.00;99490.06;5067808;28;20036;-86
2023/03/09 15:26:57;;;;;;;40.78;12.68;;;;;;;3.24;100.00;99501.69;5064886;28;20420;-86
2023/03/09 15:29:23;;;;;;;39.95;12.63;;;;;;;3.27;100.00;99490.63;5059035;28;20089;-87
2023/03/09 15:31:48;;;;;;;40.43;12.50;;;;;;;3.30;100.00;99488.28;5066289;28;20649;-86
2023/03/09 15:34:13;;;;;;;40.70;12.70;;;;;;;3.30;100.00;99471.59;5064227;28;20028;-85
2023/03/09 15:36:39;;;;;;;42.10;12.40;;;;;;;3.36;100.00;99478.56;5065528;28;20035;-85
2023/03/09 15:39:05;;;;;;;38.70;13.13;;;;;;;3.30;100.00;99475.03;5068569;28;20305;-87
2023/03/09 15:42:06;;;;;;;41.80;13.63;;;;;;;3.33;100.00;99457.88;5061422;22;20041;-87
2023/03/09 15:44:34;;;;;;;36.05;10.88;;;;;;;3.39;100.00;99458.72;5038145;28;20516;-87
2023/03/09 15:46:59;;;;;;;40.75;13.48;;;;;;;3.39;100.00;99441.00;5048562;28;20040;-87
2023/03/09 15:49:24;;;;;;;44.67;13.87;;;;;;;3.45;100.00;99434.75;5047179;28;20029;-87
2023/03/09 15:51:50;;;;;;;44.47;13.63;;;;;;;3.51;100.00;99429.50;5042769;28;20029;-87
2023/03/09 15:54:15;;;;;;;41.97;14.70;;;;;;;3.51;100.00;99437.44;5049167;28;20045;-87
2023/03/09 15:56:41;;;;;;;48.50;15.33;;;;;;;3.51;100.00;99437.44;5050051;28;20461;-88
2023/03/09 15:59:06;;;;;;;36.63;12.53;;;;;;;3.53;100.00;99433.53;5052503;28;20031;-87
2023/03/09 16:01:33;;;;;;;35.73;13.23;;;;;;;3.43;100.00;99414.84;5045869;28;20143;-87
2023/03/09 16:03:58;;;;;;;38.78;13.50;;;;;;;3.43;100.00;99415.66;5034338;28;20521;-87
2023/03/09 16:06:24;;;;;;;41.87;14.27;;;;;;;3.51;100.00;99424.19;5058357;28;20045;-87
2023/03/09 16:08:50;;;;;;;41.33;13.55;;;;;;;3.45;100.00;99424.16;5057723;28;20049;-87
2023/03/09 16:11:16;;;;;;;45.20;14.00;;;;;;;3.44;100.00;99416.44;5052295;28;20527;-86
2023/03/09 16:13:45;;;;;;;37.92;12.50;;;;;;;3.46;100.00;99414.34;5064171;28;20550;-84
2023/03/09 16:16:12;;;;;;;44.38;14.05;;;;;;;3.47;100.00;99414.09;5065649;28;20063;-85
2023/03/09 16:18:38;;;;;;;47.67;14.37;;;;;;;3.42;100.00;99395.50;5043039;28;20083;-85
2023/03/09 16:21:05;;;;;;;43.03;14.27;;;;;;;3.47;100.00;99387.59;5034806;28;20086;-85
2023/03/09 16:23:30;;;;;;;43.72;14.05;;;;;;;3.48;100.00;99386.56;5053027;28;20102;-85
2023/03/09 16:25:56;;;;;;;45.22;14.75;;;;;;;3.51;100.00;99379.16;5036724;28;20064;-85
2023/03/09 16:28:24;;;;;;;41.80;14.63;;;;;;;3.43;100.00;99369.81;5070603;22;20795;-85
2023/03/09 16:30:49;;;;;;;43.30;14.25;;;;;;;3.43;100.00;99367.97;5054283;28;20060;-84
2023/03/09 16:33:15;;;;;;;46.45;15.07;;;;;;;3.36;100.00;99358.63;5058641;28;20029;-85
2023/03/09 16:35:44;;;;;;;44.40;14.33;;;;;;;3.28;100.00;99349.25;5051992;28;20495;-85
2023/03/09 16:38:10;;;;;;;43.47;14.68;;;;;;;3.34;100.00;99358.84;5053615;28;20071;-85
2023/03/09 16:40:37;;;;;;;42.20;13.48;;;;;;;3.32;100.00;99358.28;5051939;28;20021;-85
2023/03/09 16:43:03;;;;;;;47.25;15.52;;;;;;;3.25;100.00;99347.09;5053126;28;20047;-85
2023/03/09 16:45:28;;;;;;;50.53;15.43;;;;;;;3.22;100.00;99342.28;5052630;28;20221;-85
2023/03/09 16:47:54;;;;;;;49.97;15.97;;;;;;;3.28;100.00;99347.41;5052261;28;20061;-85
2023/03/09 16:50:21;;;;;;;55.88;19.38;;;;;;;3.27;100.00;99337.84;5035455;28;20090;-85
2023/03/09 16:52:47;;;;;;;47.83;15.43;;;;;;;3.24;100.00;99342.84;5050358;28;20029;-85
2023/03/09 16:55:16;;;;;;;42.90;15.93;;;;;;;3.23;100.00;99335.94;5064501;28;20361;-87
2023/03/09 16:57:42;;;;;;;44.92;14.95;;;;;;;3.16;100.00;99323.69;5039237;28;20545;-86
2023/03/09 17:00:09;;;;;;;53.05;15.85;;;;;;;3.18;100.00;99324.25;5051312;28;20033;-86
2023/03/09 17:02:38;;;;;;;45.65;15.30;;;;;;;3.19;100.00;99325.06;5051149;28;20036;-86